Granger, IN (46530)

3:53 AM EDT on October 24, 2014 (GMT -0400)
Milton Township | Change Station
CLOSE
Current Station
Personal Weather Station
Location: Niles, MI
Elevation: 846 ft
Nearby Weather Stations

Elev 846 ft 41.77 °N, 86.17 °W | Updated 8 seconds ago

Overcast
Overcast
47.3 °F
Feels Like 47 °F
N
0.0
Wind Variable Wind from North
Gusts 0.0 mph

Today
High -- | Low -- °F
--% Chance of Precip.
Yesterday
High -- | Low -- °F
Precip. -- in
8:07 AM 6:49 PM
New Moon, 0% visible
Pressure 30.09 in
Visibility 10.0 miles
Clouds Overcast 4200 ft
Windchill 47 °F
Dew Point 44 °F
Humidity 89%
Rainfall 0.00 in
Snow Depth Not available.
UV 0.0 out of 12
Pollen 1.00 out of 12
PM2.5 Moderate
Flu Activity Sporadic
METAR KSBN 240654Z 21005KT 10SM OVC042 11/06 A3008 RMK AO2 SLP188 T01060056

More Conditions Fewer Conditions

Pressure 30.09 in
Visibility 10.0 miles
Clouds Overcast 4200 ft
Windchill 47 °F
Dew Point 44 °F
Humidity 89%
Rainfall 0.00 in
Snow Depth Not available.
UV 0.0 out of 12
Pollen 1.00 out of 12
PM2.5 Moderate
Flu Activity Sporadic
METAR KSBN 240654Z 21005KT 10SM OVC042 11/06 A3008 RMK AO2 SLP188 T01060056

More Conditions Fewer Conditions

10-Day Weather Forecast

Almanac

Astronomy

Oct. 24, 2014 Rise Set
Actual Time 8:07 AM EDT 6:49 PM EDT
Civil Twilight 7:38 AM EDT 7:18 PM EDT
Nautical Twilight 7:06 AM EDT 7:50 PM EDT
Astronomical Twilight 6:34 AM EDT 8:22 PM EDT
Moon 8:46 AM EDT 7:28 PM EDT
Length of Visible Light 11h 39m
Length of Day
10h 42m
Tomorrow will be 2m 36s shorter.
New Moon, 0% of the Moon is Illuminated
Today
New Moon
Oct 30
First Quarter
Nov 6
Full
Nov 14
Last Quarter
Nov 22
New

Today's Extremes

State Highs State Lows

Community

WunderPhotos

Upload Photos

1,764,512 photos uploaded!

WunderBlogs® & News

Nearby

Air Quality

  Air Quality AQ Index Pollutant
Yesterday Moderate
PM2.5
Current Moderate
PM2.5
Friday Moderate
PM2.5
Friday Good
OZONE

Snow Depth

Station Depth Elevation
No new snow has been reported.

Earthquake Activity

City Distance Mag. Time & Date
No recent earthquake activity has been reported nearby.
Minimum magnitude displayed is 2.5.

Coastal Water Temperatures

Place Temperature
Holland, MI 54.0 °F

Nearby Weather Stations